Latest Weather Observations for Coondewanna

IDW60801

Issued at 7:02 am WST Friday 4 September 2015 (issued every 30 minutes, with the page automatically refreshed every 10 minutes)

About weather observations | Map of weather stations | Latest weather observations for WA | Other Formats
Station Details ID: 505051 Name: COONDEWANNA Lat: -22.96 Lon: 118.81 Height: 697.63 m
Data from the previous 72 hours. | See also: Recent months for locations in Western Australia
Date/Time
WST
Temp
°C
App
Temp
°C
Dew
Point
Rel
Hum
%
Delta-T
°C
Wind Press
QNH
hPa
Press
MSL
hPa
Rain
since 9 am
mm
Dir
 
Spd
km/h
Gust
km/h
Spd
kts
Gust
kts
04/07:00am 9.8 8.3 2.9 62 3.1 CALM 0 0 0 0 1019.9 1016.6 0.0
04/06:30am 7.5 5.8 1.8 67 2.4 CALM 0 0 0 0 1019.8 1016.4 0.0
04/06:00am 6.9 5.2 1.8 70 2.2 CALM 0 0 0 0 1019.4 1016.1 0.0
04/05:30am 6.9 5.2 1.8 70 2.2 CALM 0 0 0 0 1019.2 1015.9 0.0
04/05:00am 7.4 5.3 1.5 66 2.5 E 2 7 1 4 1019.1 1015.8 0.0
04/04:30am 7.5 4.6 1.4 65 2.6 E 6 7 3 4 1019.0 1015.7 0.0
04/04:00am 8.0 6.3 1.6 64 2.7 CALM 0 0 0 0 1018.9 1015.6 0.0
04/03:30am 8.4 6.3 1.8 63 2.8 E 2 7 1 4 1019.1 1015.8 0.0
04/03:00am 10.0 6.6 2.1 58 3.5 E 9 11 5 6 1019.1 1015.8 0.0
04/02:30am 8.9 7.2 1.6 60 3.1 CALM 0 0 0 0 1019.1 1015.8 0.0
04/02:00am 9.3 7.5 1.5 58 3.4 CALM 0 0 0 0 1019.2 1015.9 0.0
04/01:30am 9.6 7.8 1.5 57 3.5 CALM 0 2 0 1 1019.4 1016.1 0.0
04/01:00am 10.0 7.1 1.4 55 3.7 E 6 6 3 3 1020.0 1016.7 0.0
04/12:30am 10.7 8.5 1.0 51 4.2 E 2 7 1 4 1020.2 1016.9 0.0
04/12:00am 12.4 9.4 0.8 45 5.1 E 6 11 3 6 1020.4 1017.1 0.0
 
Date/Time
WST
Temp
°C
App
Temp
°C
Dew
Point
Rel
Hum
%
Delta-T
°C
Wind Press
QNH
hPa
Press
MSL
hPa
Rain
since 9 am
mm
Dir
 
Spd
km/h
Gust
km/h
Spd
kts
Gust
kts
03/11:30pm 11.9 9.4 1.3 48 4.7 N 4 9 2 5 1020.6 1017.3 0.0
03/11:00pm 11.6 9.8 1.3 49 4.5 CALM 0 0 0 0 1020.5 1017.2 0.0
03/10:30pm 11.9 10.1 1.0 47 4.8 CALM 0 2 0 1 1020.7 1017.4 0.0
03/10:00pm 12.6 10.4 1.0 45 5.1 E 2 6 1 3 1020.9 1017.6 0.0
03/09:30pm 14.5 11.3 0.7 39 6.1 E 7 9 4 5 1021.0 1017.7 0.0
03/09:00pm 15.4 13.1 0.4 36 6.7 NNE 2 7 1 4 1021.1 1017.9 0.0
03/08:30pm 16.7 13.1 0.4 33 7.3 E 9 11 5 6 1021.0 1017.7 0.0
03/08:00pm 17.5 13.8 0.2 31 7.8 E 9 11 5 6 1020.9 1017.6 0.0
03/07:30pm 18.8 15.1 -0.1 28 8.6 E 9 13 5 7 1020.6 1017.3 0.0
03/07:00pm 19.6 16.3 0.1 27 8.9 NNE 7 9 4 5 1020.2 1016.9 0.0
03/06:30pm 21.1 17.7 -0.8 23 10.0 N 7 9 4 5 1020.1 1016.8 0.0
03/06:00pm 23.1 19.2 -1.8 19 11.3 N 9 13 5 7 1019.8 1016.4 0.0
03/05:30pm 24.7 20.4 -2.0 17 12.2 NNE 11 15 6 8 1019.5 1016.2 0.0
03/05:00pm 25.5 20.0 -2.1 16 12.7 N 17 26 9 14 1019.3 1016.0 0.0
03/04:30pm 25.9 21.6 -1.8 16 12.9 N 11 17 6 9 1019.2 1015.9 0.0
03/04:00pm 26.4 22.9 -1.4 16 13.0 NNE 7 17 4 9 1019.1 1015.8 0.0
03/03:30pm 26.1 21.5 -0.8 17 12.7 NNE 13 26 7 14 1019.2 1015.9 0.0
03/03:00pm 25.5 19.2 -1.3 17 12.5 NNE 22 30 12 16 1019.3 1016.0 0.0
03/02:30pm 26.3 21.4 -0.7 17 12.8 NNE 15 28 8 15 1019.3 1016.0 0.0
03/02:00pm 25.6 19.8 -1.2 17 12.5 NNE 19 26 10 14 1019.5 1016.2 0.0
03/01:30pm 25.2 19.8 -1.6 17 12.4 NNE 17 28 9 15 1019.9 1016.6 0.0
03/01:00pm 24.8 18.9 -1.9 17 12.2 NE 19 28 10 15 1020.2 1016.9 0.0
03/12:30pm 24.6 18.8 -1.3 18 12.0 NNE 19 28 10 15 1020.5 1017.2 0.0
03/12:00pm 24.2 18.2 -1.6 18 11.8 NNE 20 32 11 17 1020.7 1017.4 0.0
03/11:30am 23.2 17.2 -1.7 19 11.3 NNE 20 30 11 16 1021.0 1017.7 0.0
03/11:00am 23.0 17.3 -1.1 20 11.1 NE 19 28 10 15 1021.5 1018.2 0.0
03/10:30am 21.7 16.7 -0.9 22 10.3 ENE 15 24 8 13 1021.8 1018.5 0.0
03/10:00am 21.4 16.1 -0.6 23 10.1 E 17 24 9 13 1021.9 1018.6 0.0
03/09:30am 20.5 15.6 -0.7 24 9.6 ENE 15 22 8 12 1022.0 1018.7 0.0
03/09:00am 19.8 14.9 -0.2 26 9.1 E 15 20 8 11 1022.0 1018.7 0.0
03/08:30am 18.4 14.0 0.1 29 8.3 E 13 17 7 9 1021.9 1018.6 0.0
03/08:00am 16.4 12.6 -0.8 31 7.5 ENE 9 13 5 7 1021.7 1018.4 0.0
03/07:30am 14.6 9.7 -0.7 35 6.6 ENE 15 20 8 11 1021.4 1018.1 0.0
03/07:00am 12.5 8.0 0.0 42 5.4 E 13 20 7 11 1021.0 1017.7 0.0
03/06:30am 11.7 6.9 -0.1 44 5.0 ENE 15 17 8 9 1020.9 1017.6 0.0
03/06:00am 10.9 6.8 0.0 47 4.6 E 11 15 6 8 1020.8 1017.5 0.0
03/05:30am 9.7 4.9 0.3 52 4.0 E 15 17 8 9 1020.5 1017.2 0.0
03/05:00am 7.4 4.1 0.4 61 2.9 E 7 11 4 6 1020.2 1016.9 0.0
03/04:30am 7.1 5.2 0.8 64 2.6 CALM 0 0 0 0 1020.0 1016.7 0.0
03/04:00am 8.8 6.1 0.0 54 3.6 E 4 6 2 3 1019.8 1016.4 0.0
03/03:30am 9.6 6.0 0.8 54 3.7 WNW 9 11 5 6 1019.8 1016.4 0.0
03/03:00am 8.3 6.5 1.0 60 3.1 CALM 0 0 0 0 1019.6 1016.3 0.0
03/02:30am 8.9 6.3 1.1 58 3.3 WNW 4 7 2 4 1020.0 1016.7 0.0
03/02:00am 9.0 7.1 0.5 55 3.6 CALM 0 0 0 0 1019.8 1016.4 0.0
03/01:30am 9.9 7.6 0.5 52 4.0 ENE 2 7 1 4 1019.9 1016.6 0.0
03/01:00am 12.7 9.1 0.5 43 5.3 ENE 9 11 5 6 1020.2 1016.9 0.0
03/12:30am 11.9 8.3 0.7 46 4.9 ENE 9 9 5 5 1020.3 1017.0 0.0
03/12:00am 12.5 9.3 0.9 45 5.1 ENE 7 11 4 6 1020.5 1017.2 0.0
 
Date/Time
WST
Temp
°C
App
Temp
°C
Dew
Point
Rel
Hum
%
Delta-T
°C
Wind Press
QNH
hPa
Press
MSL
hPa
Rain
since 9 am
mm
Dir
 
Spd
km/h
Gust
km/h
Spd
kts
Gust
kts
02/11:30pm 12.0 10.1 0.8 46 4.9 CALM 0 7 0 4 1020.6 1017.3 0.0
02/11:00pm 12.1 9.9 0.8 46 4.9 ENE 2 6 1 3 1020.6 1017.3 0.0
02/10:30pm 13.2 10.0 0.6 42 5.5 ENE 7 9 4 5 1020.5 1017.2 0.0
02/10:00pm 15.1 12.3 -0.2 35 6.7 ENE 4 9 2 5 1020.4 1017.1 0.0
02/09:30pm 16.7 12.6 -0.1 32 7.5 E 11 13 6 7 1020.3 1017.0 0.0
02/09:00pm 17.9 13.4 -0.4 29 8.2 ENE 13 17 7 9 1020.1 1016.8 0.0
02/08:30pm 18.5 14.0 -0.3 28 8.5 E 13 17 7 9 1020.0 1016.7 0.0
02/08:00pm 18.6 14.5 -0.2 28 8.5 ENE 11 17 6 9 1019.9 1016.6 0.0
02/07:30pm 19.0 15.2 -0.4 27 8.8 ENE 9 11 5 6 1019.4 1016.1 0.0
02/07:00pm 20.0 15.5 -0.6 25 9.3 NE 13 17 7 9 1019.1 1015.8 0.0
02/06:30pm 20.6 16.0 -0.7 24 9.7 NE 13 20 7 11 1018.7 1015.4 0.0
02/06:00pm 21.5 16.2 -0.5 23 10.1 NE 17 24 9 13 1018.4 1015.0 0.0
02/05:30pm 22.6 16.9 -0.8 21 10.8 NE 19 26 10 14 1018.0 1014.7 0.0
02/05:00pm 23.5 18.9 -0.7 20 11.2 NE 13 20 7 11 1017.9 1014.6 0.0
02/04:30pm 23.8 19.2 -1.2 19 11.6 NNE 13 19 7 10 1017.8 1014.5 0.0
02/04:00pm 23.9 18.9 -1.1 19 11.6 NNE 15 22 8 12 1017.7 1014.4 0.0
02/03:30pm 24.6 20.7 -1.3 18 12.0 NNW 9 17 5 9 1017.7 1014.4 0.0
02/03:00pm 23.7 19.1 -1.3 19 11.5 N 13 26 7 14 1017.7 1014.4 0.0
02/02:30pm 23.3 17.6 -0.9 20 11.2 NNW 19 28 10 15 1018.0 1014.7 0.0
02/02:00pm 24.1 20.0 -0.2 20 11.4 N 11 24 6 13 1018.4 1015.0 0.0
02/01:30pm 22.5 17.8 -1.6 20 10.9 ENE 13 20 7 11 1018.7 1015.4 0.0
02/01:00pm 21.9 16.9 -1.4 21 10.5 ENE 15 20 8 11 1019.2 1015.9 0.0
02/12:30pm 21.4 16.3 -1.8 21 10.4 E 15 26 8 14 1019.6 1016.3 0.0
02/12:00pm 20.0 15.3 -1.7 23 9.6 NE 13 20 7 11 1020.2 1016.9 0.0
02/11:30am 19.4 14.0 -1.7 24 9.3 ENE 17 30 9 16 1020.7 1017.4 0.0
02/11:00am 18.3 12.4 -2.0 25 8.8 ENE 19 28 10 15 1020.8 1017.5 0.0
02/10:30am 17.2 11.7 -1.9 27 8.2 E 17 22 9 12 1021.1 1017.9 0.0
02/10:00am 16.0 9.9 -2.5 28 7.8 E 20 28 11 15 1021.6 1018.3 0.0
02/09:30am 15.0 9.1 -2.4 30 7.3 E 19 24 10 13 1021.6 1018.3 0.0
02/09:00am 14.0 7.1 -2.4 32 6.8 E 24 28 13 15 1021.4 1018.1 0.0
02/08:30am 13.5 7.4 -2.4 33 6.5 E 20 26 11 14 1021.4 1018.1 0.0
02/08:00am 12.4 6.5 -2.2 36 5.9 E 19 28 10 15 1021.4 1018.1 0.0
02/07:30am 11.2 4.7 -2.2 39 5.4 ESE 22 28 12 15 1021.0 1017.7 0.0
02/07:00am 9.7 6.4 -1.1 47 4.4 ESE 6 11 3 6 1020.7 1017.4 0.0
02/06:30am 8.9 5.0 -1.2 49 4.1 ENE 9 13 5 7 1020.2 1016.9 0.0
02/06:00am 9.2 5.3 -1.2 48 4.2 E 9 15 5 8 1020.0 1016.7 0.0
02/05:30am 9.6 5.8 -1.1 47 4.4 ESE 9 11 5 6 1019.8 1016.4 0.0
02/05:00am 10.4 6.6 -1.0 45 4.7 ESE 9 15 5 8 1019.4 1016.1 0.0
02/04:30am 10.6 6.0 -1.1 44 4.8 ESE 13 19 7 10 1019.3 1016.0 0.0
02/04:00am 11.2 6.6 -1.2 42 5.1 E 13 20 7 11 1019.2 1015.9 0.0
02/03:30am 11.6 6.9 -1.5 40 5.4 E 13 17 7 9 1019.2 1015.9 0.0
02/03:00am 12.4 8.1 -1.9 37 5.9 ESE 11 19 6 10 1019.1 1015.8 0.0
02/02:30am 12.7 8.4 -2.0 36 6.1 E 11 13 6 7 1019.2 1015.9 0.0
02/02:00am 13.6 9.7 -1.6 35 6.4 ENE 9 17 5 9 1019.2 1015.9 0.0
02/01:30am 9.6 5.8 -0.6 49 4.2 NNW 9 11 5 6 1019.2 1015.9 0.0
02/01:00am 10.6 7.3 -0.2 47 4.5 SE 7 13 4 7 1019.2 1015.9 0.0
02/12:30am 11.0 7.6 -0.5 45 4.8 S 7 9 4 5 1019.3 1016.0 0.0
02/12:00am 10.0 6.8 -0.2 49 4.3 SSW 6 11 3 6 1019.3 1016.0 0.0
 
Date/Time
WST
Temp
°C
App
Temp
°C
Dew
Point
Rel
Hum
%
Delta-T
°C
Wind Press
QNH
hPa
Press
MSL
hPa
Rain
since 9 am
mm
Dir
 
Spd
km/h
Gust
km/h
Spd
kts
Gust
kts
01/11:30pm 9.0 6.6 -0.1 53 3.8 SSW 2 6 1 3 1019.4 1016.1 0.0
01/11:00pm 9.6 6.5 0.0 51 4.0 SSW 6 7 3 4 1019.6 1016.3 0.0
01/10:30pm 10.1 8.1 -0.1 49 4.3 CALM 0 0 0 0 1019.6 1016.3 0.0
01/10:00pm 11.9 8.5 -0.6 42 5.3 SSW 7 9 4 5 1019.9 1016.6 0.0
01/09:30pm 11.6 9.6 0.1 45 4.9 CALM 0 0 0 0 1019.9 1016.6 0.0
01/09:00pm 12.1 9.3 -0.1 43 5.2 SSW 4 7 2 4 1019.8 1016.4 0.0
01/08:30pm 12.7 10.6 -0.5 40 5.6 CALM 0 0 0 0 1019.5 1016.2 0.0
01/08:00pm 15.4 11.2 -1.2 32 7.1 SSW 11 15 6 8 1019.3 1016.0 0.0
01/07:30pm 16.2 12.8 -0.9 31 7.5 S 7 9 4 5 1019.0 1015.7 0.0
01/07:00pm 17.4 13.1 -1.3 28 8.2 SSW 11 13 6 7 1018.5 1015.1 0.0
01/06:30pm 18.4 14.2 -0.9 27 8.6 SW 11 13 6 7 1018.1 1014.8 0.0
01/06:00pm 19.9 15.3 -0.7 25 9.3 SW 13 15 7 8 1017.6 1014.3 0.0
01/05:30pm 21.8 16.9 -0.8 22 10.4 SW 15 20 8 11 1017.3 1014.0 0.0
01/05:00pm 22.5 17.1 -1.6 20 10.9 SW 17 22 9 12 1017.0 1013.6 0.0
01/04:30pm 23.2 17.8 -1.7 19 11.3 WSW 17 22 9 12 1016.8 1013.4 0.0
01/04:00pm 23.1 17.7 -1.1 20 11.1 SW 17 22 9 12 1016.7 1013.3 0.0
01/03:30pm 23.4 18.5 -0.8 20 11.2 WSW 15 24 8 13 1016.7 1013.3 0.0
01/03:00pm 22.2 17.0 0.1 23 10.3 SW 17 26 9 14 1016.5 1013.2 0.0
01/02:30pm 22.7 17.6 0.5 23 10.5 WSW 17 28 9 15 1016.8 1013.4 0.0
01/02:00pm 22.8 17.9 1.8 25 10.2 SSW 17 28 9 15 1017.0 1013.6 0.0
01/01:30pm 22.4 16.5 2.0 26 9.9 WSW 22 32 12 17 1017.3 1014.0 0.0
01/01:00pm 22.5 17.1 2.6 27 9.8 WSW 20 32 11 17 1017.4 1014.1 0.0
01/12:30pm 22.2 17.0 3.3 29 9.4 WSW 20 28 11 15 1017.8 1014.5 0.0
01/12:00pm 21.4 17.1 3.1 30 9.0 SW 15 28 8 15 1018.3 1014.9 0.0
01/11:30am 20.3 15.6 3.1 32 8.4 SSW 17 28 9 15 1018.8 1015.5 0.0
01/11:00am 19.4 15.1 3.2 34 7.9 SSW 15 24 8 13 1019.2 1015.9 0.0
01/10:30am 18.7 13.9 2.5 34 7.7 S 17 26 9 14 1019.6 1016.3 0.0
01/10:00am 17.7 13.3 2.5 36 7.2 SSW 15 24 8 13 1020.0 1016.7 0.0
01/09:30am 17.2 11.9 2.8 38 6.8 SSW 20 30 11 16 1020.1 1016.8 0.0
01/09:00am 16.3 10.6 2.7 40 6.4 SSW 22 28 12 15 1020.2 1016.9 0.0
01/08:30am 16.0 10.7 2.8 41 6.2 S 20 28 11 15 1019.9 1016.6 0.0
01/08:00am 14.8 10.0 2.4 43 5.7 SSW 17 24 9 13 1019.8 1016.4 0.0
01/07:30am 13.0 9.8 2.8 50 4.7 SSW 9 15 5 8 1019.6 1017.5 0.0

Other Formats:

Comma delimited format used in spreadsheet applications
http://www.bom.gov.au/fwo/IDW60801/IDW60801.99312.axf

JavaScript Object Notation format (JSON) in row-major order
http://www.bom.gov.au/fwo/IDW60801/IDW60801.99312.json